Time;durP1;ratioP1;P1;durP2;ratioP2;P2;SDS_P1;SDS_P2;PMS_P1;PMS_P2;Temp;Humidity;BMP_temperature;BMP_pressure;BME280_temperature;BME280_humidity;BME280_pressure;Samples;Min_cycle;Max_cycle;Signal;HPM_P1;HPM_P2
2023/01/20 00:01:03;;;;;;;;;;;0.80;99.90;;;;;;5063104;28;19924;-70
2023/01/20 00:03:29;;;;;;;;;;;0.80;99.90;;;;;;5051452;28;19925;-69
2023/01/20 00:05:57;;;;;;;;;;;0.80;99.90;;;;;;5061555;28;20015;-70
2023/01/20 00:08:24;;;;;;;;;;;0.80;99.90;;;;;;5052612;28;19925;-69
2023/01/20 00:10:51;;;;;;;;;;;0.80;99.90;;;;;;5062721;28;19974;-70
2023/01/20 00:13:17;;;;;;;;;;;0.80;99.90;;;;;;5052230;28;19967;-69
2023/01/20 00:15:44;;;;;;;;;;;0.80;99.90;;;;;;5065049;28;19924;-69
2023/01/20 00:18:11;;;;;;;;;;;0.80;99.90;;;;;;5063174;28;20410;-69
2023/01/20 00:20:37;;;;;;;;;;;0.80;99.90;;;;;;5058410;28;19932;-69
2023/01/20 00:23:06;;;;;;;;;;;0.80;99.90;;;;;;5066997;28;19930;-70
2023/01/20 00:25:35;;;;;;;;;;;0.80;99.90;;;;;;5063897;28;20015;-69
2023/01/20 00:28:02;;;;;;;;;;;0.80;99.90;;;;;;5064764;28;20098;-70
2023/01/20 00:30:28;;;;;;;;;;;0.80;99.90;;;;;;5066710;28;19931;-70
2023/01/20 00:32:55;;;;;;;;;;;0.80;99.90;;;;;;5058808;28;19931;-69
2023/01/20 00:35:21;;;;;;;;;;;0.80;99.90;;;;;;5059306;28;20310;-70
2023/01/20 00:37:48;;;;;;;;;;;0.80;99.90;;;;;;5063053;28;20039;-69
2023/01/20 00:40:16;;;;;;;;;;;0.80;99.90;;;;;;5070110;28;19925;-70
2023/01/20 00:42:43;;;;;;;;;;;0.80;99.90;;;;;;5057580;28;20448;-70
2023/01/20 00:45:10;;;;;;;;;;;0.80;99.90;;;;;;5051745;28;19925;-70
2023/01/20 00:47:37;;;;;;;;;;;0.80;99.90;;;;;;5059834;28;20363;-70
2023/01/20 00:50:04;;;;;;;;;;;0.80;99.90;;;;;;5057622;28;19939;-68
2023/01/20 00:52:30;;;;;;;;;;;0.80;99.90;;;;;;5051081;28;20015;-69
2023/01/20 00:54:57;;;;;;;;;;;0.80;99.90;;;;;;5060272;28;19928;-70
2023/01/20 00:57:25;;;;;;;;;;;0.80;99.90;;;;;;5060563;28;20023;-69
2023/01/20 00:59:51;;;;;;;;;;;0.80;99.90;;;;;;5057592;28;19924;-70
2023/01/20 01:02:18;;;;;;;;;;;0.80;99.90;;;;;;5053299;28;20008;-70
2023/01/20 01:04:48;;;;;;;;;;;0.80;99.90;;;;;;5056827;28;20019;-69
2023/01/20 01:07:15;;;;;;;;;;;0.80;99.90;;;;;;5060543;28;20011;-70
2023/01/20 01:09:42;;;;;;;;;;;0.80;99.90;;;;;;5068566;28;19975;-70
2023/01/20 01:12:08;;;;;;;;;;;0.70;99.90;;;;;;5055459;28;19925;-70
2023/01/20 01:14:36;;;;;;;;;;;0.80;99.90;;;;;;5055956;28;20282;-70
2023/01/20 01:17:03;;;;;;;;;;;0.80;99.90;;;;;;5058756;28;20004;-69
2023/01/20 01:19:30;;;;;;;;;;;0.70;99.90;;;;;;5060524;28;19931;-69
2023/01/20 01:21:56;;;;;;;;;;;0.80;99.90;;;;;;5059615;28;20003;-70
2023/01/20 01:24:23;;;;;;;;;;;0.70;99.90;;;;;;5060656;28;19949;-70
2023/01/20 01:26:50;;;;;;;;;;;0.70;99.90;;;;;;5058206;28;20462;-70
2023/01/20 01:29:16;;;;;;;;;;;0.70;99.90;;;;;;5060494;28;19924;-69
2023/01/20 01:31:44;;;;;;;;;;;0.60;99.90;;;;;;5057621;28;19925;-69
2023/01/20 01:34:11;;;;;;;;;;;0.60;99.90;;;;;;5064813;28;19932;-69
2023/01/20 01:36:37;;;;;;;;;;;0.60;99.90;;;;;;5062430;28;20035;-69
2023/01/20 01:39:04;;;;;;;;;;;0.70;99.90;;;;;;5064836;28;19972;-70
2023/01/20 01:41:31;;;;;;;;;;;0.70;99.90;;;;;;5064418;28;20011;-69
2023/01/20 01:44:02;;;;;;;;;;;0.70;99.90;;;;;;5060219;28;19931;-69
2023/01/20 01:46:28;;;;;;;;;;;0.70;99.90;;;;;;5072498;28;19967;-69
2023/01/20 01:48:57;;;;;;;;;;;0.70;99.90;;;;;;5054723;28;19935;-69
2023/01/20 01:51:25;;;;;;;;;;;0.70;99.90;;;;;;5056934;28;19925;-71
2023/01/20 01:53:56;;;;;;;;;;;0.70;99.90;;;;;;5055356;28;19931;-69
2023/01/20 01:56:23;;;;;;;;;;;0.70;99.90;;;;;;5059079;28;20149;-69
2023/01/20 01:58:51;;;;;;;;;;;0.60;99.90;;;;;;5055174;28;19925;-69
2023/01/20 02:01:18;;;;;;;;;;;0.60;99.90;;;;;;5056639;28;19959;-70
2023/01/20 02:03:48;;;;;;;;;;;0.60;99.90;;;;;;5061204;28;20024;-69
2023/01/20 02:06:16;;;;;;;;;;;0.60;99.90;;;;;;5055013;28;19957;-70
2023/01/20 02:08:43;;;;;;;;;;;0.60;99.90;;;;;;5054005;28;19931;-69
2023/01/20 02:11:09;;;;;;;;;;;0.60;99.90;;;;;;5055957;28;19975;-69
2023/01/20 02:13:36;;;;;;;;;;;0.50;99.90;;;;;;5057448;28;19930;-69
2023/01/20 02:16:08;;;;;;;;;;;0.50;99.90;;;;;;5066748;28;19925;-68
2023/01/20 02:18:41;;;;;;;;;;;0.50;99.90;;;;;;5060669;28;20020;-69
2023/01/20 02:21:27;;;;;;;;;;;0.50;99.90;;;;;;5063870;28;20449;-69
2023/01/20 02:24:11;;;;;;;;;;;0.50;99.90;;;;;;5053591;28;19932;-69
2023/01/20 02:26:44;;;;;;;;;;;0.50;99.90;;;;;;5062091;28;20387;-70
2023/01/20 02:29:20;;;;;;;;;;;0.50;99.90;;;;;;5065407;28;20397;-69
2023/01/20 02:32:03;;;;;;;;;;;0.50;99.90;;;;;;5066523;28;19928;-69
2023/01/20 02:34:31;;;;;;;;;;;0.50;99.90;;;;;;5070039;28;20019;-68
2023/01/20 02:37:00;;;;;;;;;;;0.50;99.90;;;;;;5073054;28;20020;-69
2023/01/20 02:39:28;;;;;;;;;;;0.50;99.90;;;;;;5065538;28;19964;-69
2023/01/20 02:41:58;;;;;;;;;;;0.50;99.90;;;;;;5059815;28;19924;-69
2023/01/20 02:44:27;;;;;;;;;;;0.50;99.90;;;;;;5065096;28;20426;-70
2023/01/20 02:46:58;;;;;;;;;;;0.50;99.90;;;;;;5062337;28;20307;-69
2023/01/20 02:49:29;;;;;;;;;;;0.40;99.90;;;;;;5057929;28;19928;-70
2023/01/20 02:51:58;;;;;;;;;;;0.40;99.90;;;;;;5053500;28;20015;-69
2023/01/20 02:54:25;;;;;;;;;;;0.40;99.90;;;;;;5061829;28;19931;-70
2023/01/20 02:56:53;;;;;;;;;;;0.40;99.90;;;;;;5066117;28;20299;-69
2023/01/20 02:59:21;;;;;;;;;;;0.40;99.90;;;;;;5057182;28;20423;-69
2023/01/20 03:01:50;;;;;;;;;;;0.40;99.90;;;;;;5062473;28;20265;-69
2023/01/20 03:04:18;;;;;;;;;;;0.30;99.90;;;;;;5063308;28;19931;-69
2023/01/20 03:06:49;;;;;;;;;;;0.30;99.90;;;;;;5064307;28;19998;-70
2023/01/20 03:09:18;;;;;;;;;;;0.30;99.90;;;;;;5061701;28;19924;-68
2023/01/20 03:11:47;;;;;;;;;;;0.20;99.90;;;;;;5066745;28;19924;-69
2023/01/20 03:14:14;;;;;;;;;;;0.10;99.90;;;;;;5060349;28;19978;-69
2023/01/20 03:16:41;;;;;;;;;;;0.10;99.90;;;;;;5061118;28;19979;-68
2023/01/20 03:19:08;;;;;;;;;;;0.10;99.90;;;;;;5062112;28;20015;-69
2023/01/20 03:21:35;;;;;;;;;;;0.00;99.90;;;;;;5058854;28;19959;-68
2023/01/20 03:24:04;;;;;;;;;;;0.00;99.90;;;;;;5058261;28;19931;-69
2023/01/20 03:26:31;;;;;;;;;;;-0.10;99.90;;;;;;5064152;28;19932;-69
2023/01/20 03:28:58;;;;;;;;;;;-0.10;99.90;;;;;;5059199;28;20311;-69
2023/01/20 03:31:25;;;;;;;;;;;-0.10;99.90;;;;;;5053240;28;20054;-69
2023/01/20 03:33:54;;;;;;;;;;;-0.10;99.90;;;;;;5060315;28;19925;-69
2023/01/20 03:36:22;;;;;;;;;;;-0.10;99.90;;;;;;5064352;28;19939;-69
2023/01/20 03:38:49;;;;;;;;;;;-0.10;99.90;;;;;;5052601;28;20305;-69
2023/01/20 03:41:25;;;;;;;;;;;-0.10;99.90;;;;;;5061511;28;19931;-69
2023/01/20 03:43:54;;;;;;;;;;;-0.10;99.90;;;;;;5059707;28;20377;-69
2023/01/20 03:46:30;;;;;;;;;;;-0.10;99.90;;;;;;5058297;28;19924;-70
2023/01/20 03:49:00;;;;;;;;;;;-0.10;99.90;;;;;;5057806;28;19931;-70
2023/01/20 03:51:32;;;;;;;;;;;-0.10;99.90;;;;;;5065126;28;19929;-69
2023/01/20 03:54:01;;;;;;;;;;;-0.10;99.90;;;;;;5063489;28;19961;-69
2023/01/20 03:56:32;;;;;;;;;;;0.00;99.90;;;;;;5071414;28;20011;-68
2023/01/20 03:59:00;;;;;;;;;;;0.00;99.90;;;;;;5057208;28;19925;-69
2023/01/20 04:01:30;;;;;;;;;;;0.00;99.90;;;;;;5065021;28;19924;-69
2023/01/20 04:03:57;;;;;;;;;;;0.00;99.90;;;;;;5062800;28;20015;-69
2023/01/20 04:06:24;;;;;;;;;;;0.10;99.90;;;;;;5051887;28;19925;-69
2023/01/20 04:08:55;;;;;;;;;;;0.10;99.90;;;;;;5054923;28;19925;-69
2023/01/20 04:11:22;;;;;;;;;;;0.20;99.90;;;;;;5070054;28;19925;-69
2023/01/20 04:13:51;;;;;;;;;;;0.20;99.90;;;;;;5059340;28;19925;-69
2023/01/20 04:16:18;;;;;;;;;;;0.20;99.90;;;;;;5052412;28;19929;-69
2023/01/20 04:18:46;;;;;;;;;;;0.20;99.90;;;;;;5054536;28;19924;-69
2023/01/20 04:21:14;;;;;;;;;;;0.20;99.90;;;;;;5056815;28;20303;-69
2023/01/20 04:23:42;;;;;;;;;;;0.30;99.90;;;;;;5070407;28;19970;-69
2023/01/20 04:26:09;;;;;;;;;;;0.30;99.90;;;;;;5053071;28;19924;-70
2023/01/20 04:28:35;;;;;;;;;;;0.30;99.90;;;;;;5058100;28;19943;-70
2023/01/20 04:31:03;;;;;;;;;;;0.30;99.90;;;;;;5064521;28;20011;-69
2023/01/20 04:33:30;;;;;;;;;;;0.40;99.90;;;;;;5053726;28;20310;-68
2023/01/20 04:35:57;;;;;;;;;;;0.30;99.90;;;;;;5055694;28;19929;-69
2023/01/20 04:38:23;;;;;;;;;;;0.40;99.90;;;;;;5056460;28;19925;-69
2023/01/20 04:40:50;;;;;;;;;;;0.40;99.90;;;;;;5059821;28;19967;-68
2023/01/20 04:43:17;;;;;;;;;;;0.40;99.90;;;;;;5053217;28;20018;-69
2023/01/20 04:45:43;;;;;;;;;;;0.40;99.90;;;;;;5063899;28;19924;-68
2023/01/20 04:48:11;;;;;;;;;;;0.40;99.90;;;;;;5057258;28;19931;-69
2023/01/20 04:50:39;;;;;;;;;;;0.40;99.90;;;;;;5063603;28;19978;-69
2023/01/20 04:53:05;;;;;;;;;;;0.40;99.90;;;;;;5053177;28;19925;-68
2023/01/20 04:55:32;;;;;;;;;;;0.40;99.90;;;;;;5062967;28;19930;-68
2023/01/20 04:57:59;;;;;;;;;;;0.50;99.90;;;;;;5061879;28;20318;-69
2023/01/20 05:00:25;;;;;;;;;;;0.50;99.90;;;;;;5067431;28;19944;-69
2023/01/20 05:02:52;;;;;;;;;;;0.50;99.90;;;;;;5050535;28;19932;-69
2023/01/20 05:05:20;;;;;;;;;;;0.50;99.90;;;;;;5063540;28;20423;-69
2023/01/20 05:07:46;;;;;;;;;;;0.50;99.90;;;;;;5050928;28;19924;-69
2023/01/20 05:10:13;;;;;;;;;;;0.50;99.90;;;;;;5059160;28;20348;-68
2023/01/20 05:12:40;;;;;;;;;;;0.50;99.90;;;;;;5060776;28;20343;-71
2023/01/20 05:15:07;;;;;;;;;;;0.60;99.90;;;;;;5067542;28;19936;-68
2023/01/20 05:17:34;;;;;;;;;;;0.60;99.90;;;;;;5063295;28;19925;-69
2023/01/20 05:20:00;;;;;;;;;;;0.60;99.90;;;;;;5071499;28;19924;-70
2023/01/20 05:22:31;;;;;;;;;;;0.60;99.90;;;;;;5061730;28;19931;-70
2023/01/20 05:24:58;;;;;;;;;;;0.60;99.90;;;;;;5067421;28;19974;-68
2023/01/20 05:27:25;;;;;;;;;;;0.70;99.90;;;;;;5064417;28;19924;-70
2023/01/20 05:29:52;;;;;;;;;;;0.70;99.90;;;;;;5070879;28;19924;-69
2023/01/20 05:32:18;;;;;;;;;;;0.70;99.90;;;;;;5069410;28;20009;-71
2023/01/20 05:34:45;;;;;;;;;;;0.70;99.90;;;;;;5071402;28;20039;-69
2023/01/20 05:37:12;;;;;;;;;;;0.60;99.90;;;;;;5060039;28;20443;-71
2023/01/20 05:39:40;;;;;;;;;;;0.60;99.90;;;;;;5056504;28;19933;-70
2023/01/20 05:42:07;;;;;;;;;;;0.70;99.90;;;;;;5064502;28;19925;-69
2023/01/20 05:44:34;;;;;;;;;;;0.60;99.90;;;;;;5059645;28;19925;-69
2023/01/20 05:47:01;;;;;;;;;;;0.70;99.90;;;;;;5059950;28;20089;-70
2023/01/20 05:49:28;;;;;;;;;;;0.70;99.90;;;;;;5064708;28;19925;-70
2023/01/20 05:51:54;;;;;;;;;;;0.70;99.90;;;;;;5065231;28;20453;-68
2023/01/20 05:54:21;;;;;;;;;;;0.70;99.90;;;;;;5068890;28;20457;-69
2023/01/20 05:56:49;;;;;;;;;;;0.70;99.90;;;;;;5058193;28;19932;-70
2023/01/20 05:59:16;;;;;;;;;;;0.70;99.90;;;;;;5054705;28;19931;-70
2023/01/20 06:01:42;;;;;;;;;;;0.70;99.90;;;;;;5062646;28;19930;-68
2023/01/20 06:04:09;;;;;;;;;;;0.70;99.90;;;;;;5065487;28;19975;-69
2023/01/20 06:06:36;;;;;;;;;;;0.70;99.90;;;;;;5054651;28;19931;-70
2023/01/20 06:09:02;;;;;;;;;;;0.70;99.90;;;;;;5059825;28;20409;-69
2023/01/20 06:11:29;;;;;;;;;;;0.70;99.90;;;;;;5067415;28;20381;-70
2023/01/20 06:13:57;;;;;;;;;;;0.80;99.90;;;;;;5071357;28;20022;-70
2023/01/20 06:16:25;;;;;;;;;;;0.80;99.90;;;;;;5069646;28;19968;-69
2023/01/20 06:18:51;;;;;;;;;;;0.80;99.90;;;;;;5054776;28;19928;-69
2023/01/20 06:21:18;;;;;;;;;;;0.80;99.90;;;;;;5067967;28;19929;-70
2023/01/20 06:23:45;;;;;;;;;;;0.90;99.90;;;;;;5055385;28;20019;-70
2023/01/20 06:26:13;;;;;;;;;;;0.90;99.90;;;;;;5063701;28;20445;-69
2023/01/20 06:28:40;;;;;;;;;;;0.90;99.90;;;;;;5070797;28;19924;-70
2023/01/20 06:31:09;;;;;;;;;;;0.90;99.90;;;;;;5070684;28;20409;-70
2023/01/20 06:33:35;;;;;;;;;;;1.00;99.90;;;;;;5071851;28;20016;-69
2023/01/20 06:36:03;;;;;;;;;;;1.00;99.90;;;;;;5060542;28;20023;-70
2023/01/20 06:38:31;;;;;;;;;;;1.00;99.90;;;;;;5057606;28;20437;-69
2023/01/20 06:40:57;;;;;;;;;;;1.00;99.90;;;;;;5070346;28;19925;-69
2023/01/20 06:43:24;;;;;;;;;;;1.00;99.90;;;;;;5065115;28;19931;-70
2023/01/20 06:45:51;;;;;;;;;;;1.00;99.90;;;;;;5070184;28;20038;-70
2023/01/20 06:48:19;;;;;;;;;;;1.00;99.90;;;;;;5066595;28;20015;-69
2023/01/20 06:50:46;;;;;;;;;;;1.00;99.90;;;;;;5070466;28;19930;-71
2023/01/20 06:53:12;;;;;;;;;;;1.00;99.90;;;;;;5075067;28;19931;-69
2023/01/20 06:55:39;;;;;;;;;;;1.00;99.90;;;;;;5071877;28;19925;-68
2023/01/20 06:58:06;;;;;;;;;;;1.00;99.90;;;;;;5067541;28;19932;-71
2023/01/20 07:00:32;;;;;;;;;;;1.00;99.90;;;;;;5062682;28;19924;-69
2023/01/20 07:02:59;;;;;;;;;;;1.00;99.90;;;;;;5065004;28;20043;-71
2023/01/20 07:05:27;;;;;;;;;;;1.00;99.90;;;;;;5063102;28;20439;-70
2023/01/20 07:07:54;;;;;;;;;;;1.00;99.90;;;;;;5065690;28;19975;-70
2023/01/20 07:10:21;;;;;;;;;;;1.20;99.90;;;;;;5065497;28;19931;-69
2023/01/20 07:12:47;;;;;;;;;;;1.10;99.90;;;;;;5071203;28;20015;-68
2023/01/20 07:15:14;;;;;;;;;;;1.10;99.90;;;;;;5069742;28;19946;-70
2023/01/20 07:17:41;;;;;;;;;;;1.10;99.90;;;;;;5073169;28;20406;-69
2023/01/20 07:20:08;;;;;;;;;;;1.10;99.90;;;;;;5060606;28;20024;-66
2023/01/20 07:22:36;;;;;;;;;;;1.10;99.90;;;;;;5058432;28;19931;-66
2023/01/20 07:25:03;;;;;;;;;;;1.20;99.90;;;;;;5057092;28;19924;-66
2023/01/20 07:27:30;;;;;;;;;;;1.20;99.90;;;;;;5067952;28;19958;-67
2023/01/20 07:29:56;;;;;;;;;;;1.20;99.90;;;;;;5059903;28;19929;-66
2023/01/20 07:32:23;;;;;;;;;;;1.20;99.90;;;;;;5059771;28;20019;-67
2023/01/20 07:34:50;;;;;;;;;;;1.20;99.90;;;;;;5063810;28;19928;-67
2023/01/20 07:37:16;;;;;;;;;;;1.20;99.90;;;;;;5052081;28;20012;-68
2023/01/20 07:39:44;;;;;;;;;;;1.20;99.90;;;;;;5065477;28;19925;-67
2023/01/20 07:42:11;;;;;;;;;;;1.20;99.90;;;;;;5056966;28;20287;-67
2023/01/20 07:44:38;;;;;;;;;;;1.20;99.90;;;;;;5062697;28;19925;-68
2023/01/20 07:47:04;;;;;;;;;;;1.20;99.90;;;;;;5055428;28;20346;-68
2023/01/20 07:49:31;;;;;;;;;;;1.20;99.90;;;;;;5066183;28;19982;-67
2023/01/20 07:51:58;;;;;;;;;;;1.20;99.90;;;;;;5054508;28;19932;-69
2023/01/20 07:54:25;;;;;;;;;;;1.20;99.90;;;;;;5068207;28;19933;-69
2023/01/20 07:56:53;;;;;;;;;;;1.20;99.90;;;;;;5066331;28;19924;-69
2023/01/20 07:59:19;;;;;;;;;;;1.30;99.90;;;;;;5064916;28;19932;-68
2023/01/20 08:01:46;;;;;;;;;;;1.30;99.90;;;;;;5064011;28;20019;-69
2023/01/20 08:04:13;;;;;;;;;;;1.30;99.90;;;;;;5067486;28;20070;-74
2023/01/20 08:06:39;;;;;;;;;;;1.30;99.90;;;;;;5071864;28;19937;-72
2023/01/20 08:09:10;;;;;;;;;;;1.30;99.90;;;;;;5070829;28;19936;-72
2023/01/20 08:11:37;;;;;;;;;;;1.30;99.90;;;;;;5072752;28;19925;-72
2023/01/20 08:14:05;;;;;;;;;;;1.40;99.90;;;;;;5065848;28;19983;-73
2023/01/20 08:16:32;;;;;;;;;;;1.40;99.90;;;;;;5072001;28;20003;-74
2023/01/20 08:18:59;;;;;;;;;;;1.40;99.90;;;;;;5069031;28;19924;-73
2023/01/20 08:21:26;;;;;;;;;;;1.40;99.90;;;;;;5065121;28;20008;-73
2023/01/20 08:23:54;;;;;;;;;;;1.40;99.90;;;;;;5060629;28;19924;-72
2023/01/20 08:26:23;;;;;;;;;;;1.40;99.90;;;;;;5072106;28;20000;-74
2023/01/20 08:28:50;;;;;;;;;;;1.30;99.90;;;;;;5069035;28;19928;-72
2023/01/20 08:31:19;;;;;;;;;;;1.30;99.90;;;;;;5068674;28;20116;-73
2023/01/20 08:33:46;;;;;;;;;;;1.30;99.90;;;;;;5060121;28;19925;-73
2023/01/20 08:36:14;;;;;;;;;;;1.30;99.90;;;;;;5062530;28;20102;-72
2023/01/20 08:38:41;;;;;;;;;;;1.30;99.90;;;;;;5064589;28;19931;-72
2023/01/20 08:41:08;;;;;;;;;;;1.40;99.90;;;;;;5061630;28;19925;-73
2023/01/20 08:43:34;;;;;;;;;;;1.40;99.90;;;;;;5056092;28;19924;-72
2023/01/20 08:46:02;;;;;;;;;;;1.30;99.90;;;;;;5051630;28;19924;-73
2023/01/20 08:48:30;;;;;;;;;;;1.40;99.90;;;;;;5061086;28;20007;-74
2023/01/20 08:50:57;;;;;;;;;;;1.40;99.90;;;;;;5065047;28;19931;-73
2023/01/20 08:53:24;;;;;;;;;;;1.40;99.90;;;;;;5065518;28;20003;-73
2023/01/20 08:55:54;;;;;;;;;;;1.40;99.90;;;;;;5061428;28;20456;-73
2023/01/20 08:58:21;;;;;;;;;;;1.50;99.90;;;;;;5070357;28;20031;-72
2023/01/20 09:00:48;;;;;;;;;;;1.50;99.90;;;;;;5063586;28;19924;-73
2023/01/20 09:03:14;;;;;;;;;;;1.50;99.90;;;;;;5070853;28;19925;-73
2023/01/20 09:05:42;;;;;;;;;;;1.40;99.90;;;;;;5081652;28;19964;-74
2023/01/20 09:08:09;;;;;;;;;;;1.50;99.90;;;;;;5071827;28;19989;-74
2023/01/20 09:10:36;;;;;;;;;;;1.50;99.90;;;;;;5070866;28;19984;-73
2023/01/20 09:13:02;;;;;;;;;;;1.60;99.90;;;;;;5078207;28;20401;-73
2023/01/20 09:15:29;;;;;;;;;;;1.60;99.90;;;;;;5068894;28;20011;-72
2023/01/20 09:17:57;;;;;;;;;;;1.60;99.90;;;;;;5071774;28;20007;-72
2023/01/20 09:20:24;;;;;;;;;;;1.60;99.90;;;;;;5066849;28;19982;-74
2023/01/20 09:22:52;;;;;;;;;;;1.70;99.90;;;;;;5070457;28;19925;-73
2023/01/20 09:25:19;;;;;;;;;;;1.80;99.90;;;;;;5059275;28;20318;-73
2023/01/20 09:27:46;;;;;;;;;;;1.80;99.90;;;;;;5071448;28;19925;-73
2023/01/20 09:30:12;;;;;;;;;;;1.80;99.90;;;;;;5070613;28;19924;-74
2023/01/20 09:32:39;;;;;;;;;;;1.80;99.90;;;;;;5071832;28;20298;-73
2023/01/20 09:35:06;;;;;;;;;;;1.80;99.90;;;;;;5053359;28;19932;-72
2023/01/20 09:45:57;;;;;;;;;;;2.00;99.90;;;;;;5085527;28;19982;-73
2023/01/20 09:54:05;;;;;;;;;;;2.00;99.90;;;;;;5059019;28;19947;-78
2023/01/20 09:56:37;;;;;;;;;;;2.10;99.90;;;;;;5058306;28;20007;-74
2023/01/20 09:59:06;;;;;;;;;;;2.10;99.90;;;;;;5071954;28;19924;-73
2023/01/20 10:01:35;;;;;;;;;;;2.20;99.90;;;;;;5074857;28;19930;-72
2023/01/20 10:04:05;;;;;;;;;;;2.30;99.90;;;;;;5071369;28;19925;-72
2023/01/20 10:06:33;;;;;;;;;;;2.40;99.90;;;;;;5054303;28;20019;-73
2023/01/20 10:09:02;;;;;;;;;;;2.50;99.90;;;;;;5066382;28;19928;-74
2023/01/20 10:11:30;;;;;;;;;;;2.70;99.90;;;;;;5064269;28;20011;-72
2023/01/20 10:14:02;;;;;;;;;;;2.90;99.90;;;;;;5073347;28;20380;-73
2023/01/20 10:16:31;;;;;;;;;;;3.00;99.90;;;;;;5060014;28;19931;-73
2023/01/20 10:19:00;;;;;;;;;;;3.10;99.90;;;;;;5057016;28;19925;-72
2023/01/20 10:21:30;;;;;;;;;;;3.20;99.90;;;;;;5066693;28;19975;-73
2023/01/20 10:23:58;;;;;;;;;;;3.20;99.90;;;;;;5073429;28;20363;-73
2023/01/20 10:26:26;;;;;;;;;;;3.20;99.90;;;;;;5075456;28;20007;-73
2023/01/20 10:28:55;;;;;;;;;;;3.10;99.90;;;;;;5068899;28;19969;-73
2023/01/20 10:31:26;;;;;;;;;;;3.10;99.90;;;;;;5062756;28;19924;-72
2023/01/20 10:33:55;;;;;;;;;;;3.10;99.90;;;;;;5073480;28;19931;-72
2023/01/20 10:36:25;;;;;;;;;;;3.00;99.90;;;;;;5070608;28;19924;-73
2023/01/20 10:38:54;;;;;;;;;;;3.00;99.90;;;;;;5073689;28;20435;-73
2023/01/20 10:41:24;;;;;;;;;;;3.00;99.90;;;;;;5055034;28;19925;-73
2023/01/20 10:43:50;;;;;;;;;;;2.90;99.90;;;;;;5069336;28;19968;-72
2023/01/20 10:46:23;;;;;;;;;;;3.00;99.90;;;;;;5073229;28;19931;-71
2023/01/20 10:49:09;;;;;;;;;;;3.00;99.90;;;;;;5072908;28;19967;-73
2023/01/20 10:51:39;;;;;;;;;;;3.00;99.90;;;;;;5053617;28;19925;-72
2023/01/20 10:54:13;;;;;;;;;;;3.00;99.90;;;;;;5061922;28;23310;-72
2023/01/20 10:56:42;;;;;;;;;;;3.00;99.90;;;;;;5073311;28;19925;-73
2023/01/20 10:59:12;;;;;;;;;;;3.10;99.90;;;;;;5069951;28;19932;-73
2023/01/20 11:01:39;;;;;;;;;;;3.20;99.90;;;;;;5058232;28;19994;-72
2023/01/20 11:04:13;;;;;;;;;;;3.30;99.90;;;;;;5054858;28;20039;-73
2023/01/20 11:06:40;;;;;;;;;;;3.50;99.90;;;;;;5054023;28;19929;-73
2023/01/20 11:09:13;;;;;;;;;;;3.70;99.90;;;;;;5059231;28;20027;-72
2023/01/20 11:11:40;;;;;;;;;;;4.00;99.90;;;;;;5073050;28;20007;-73
2023/01/20 11:14:07;;;;;;;;;;;4.10;99.90;;;;;;5068520;28;20457;-72
2023/01/20 11:16:34;;;;;;;;;;;4.10;99.90;;;;;;5073811;28;20276;-72
2023/01/20 11:19:02;;;;;;;;;;;4.30;99.90;;;;;;5071263;28;20007;-71
2023/01/20 11:21:32;;;;;;;;;;;4.70;99.90;;;;;;5073138;28;19929;-71
2023/01/20 11:23:59;;;;;;;;;;;4.70;99.90;;;;;;5070973;28;19925;-72
2023/01/20 11:26:27;;;;;;;;;;;4.60;99.90;;;;;;5073013;28;20002;-72
2023/01/20 11:28:55;;;;;;;;;;;4.50;99.90;;;;;;5069158;28;19985;-73
2023/01/20 11:31:22;;;;;;;;;;;4.30;99.90;;;;;;5065477;28;19929;-72
2023/01/20 11:33:56;;;;;;;;;;;4.30;99.90;;;;;;5066464;28;20011;-72
2023/01/20 11:36:24;;;;;;;;;;;4.20;99.90;;;;;;5073004;28;20432;-72
2023/01/20 11:38:53;;;;;;;;;;;4.10;99.90;;;;;;5072980;28;19924;-73
2023/01/20 11:41:22;;;;;;;;;;;4.10;99.90;;;;;;5072612;28;19924;-73
2023/01/20 11:43:49;;;;;;;;;;;4.10;99.90;;;;;;5071849;28;19975;-73
2023/01/20 11:46:21;;;;;;;;;;;4.30;99.90;;;;;;5073021;28;20027;-73
2023/01/20 11:48:48;;;;;;;;;;;4.30;99.90;;;;;;5071618;28;19924;-73
2023/01/20 11:51:21;;;;;;;;;;;4.50;99.90;;;;;;5054586;28;20008;-73
2023/01/20 11:53:48;;;;;;;;;;;4.70;99.90;;;;;;5062948;28;20354;-72
2023/01/20 11:56:18;;;;;;;;;;;4.70;99.90;;;;;;5052346;28;19925;-73
2023/01/20 11:58:50;;;;;;;;;;;4.70;99.90;;;;;;5071579;28;19925;-73
2023/01/20 12:01:20;;;;;;;;;;;4.70;99.90;;;;;;5052645;28;19925;-72
2023/01/20 12:04:05;;;;;;;;;;;4.80;99.90;;;;;;5050890;28;19960;-72
2023/01/20 12:06:33;;;;;;;;;;;4.90;99.90;;;;;;5065078;28;20011;-73
2023/01/20 12:09:02;;;;;;;;;;;5.00;99.90;;;;;;5052472;28;19925;-73
2023/01/20 12:11:34;;;;;;;;;;;5.20;99.90;;;;;;5070926;28;20158;-72
2023/01/20 12:17:03;;;;;;;;;;;5.50;99.90;;;;;;5071827;28;19938;-72
2023/01/20 12:19:33;;;;;;;;;;;5.40;99.90;;;;;;5052906;28;20003;-73
2023/01/20 12:22:03;;;;;;;;;;;5.30;99.90;;;;;;5069951;28;20476;-72
2023/01/20 12:25:06;;;;;;;;;;;5.20;99.90;;;;;;5065565;28;19924;-71
2023/01/20 12:27:22;;;;;;;;;;;4.80;99.90;;;;;;5071374;28;20432;-73
2023/01/20 12:29:51;;;;;;;;;;;4.30;99.90;;;;;;5070100;28;20020;-73
2023/01/20 12:32:17;;;;;;;;;;;4.40;99.90;;;;;;5071950;28;19934;-72
2023/01/20 12:34:44;;;;;;;;;;;4.40;99.90;;;;;;5062353;28;20406;-72
2023/01/20 12:37:17;;;;;;;;;;;4.50;99.90;;;;;;5054507;28;20024;-73
2023/01/20 12:39:52;;;;;;;;;;;4.50;99.90;;;;;;5058350;28;19925;-73
2023/01/20 12:42:36;;;;;;;;;;;4.80;99.90;;;;;;5072057;28;20006;-72
2023/01/20 12:45:09;;;;;;;;;;;5.20;99.90;;;;;;5069504;28;20019;-73
2023/01/20 12:47:43;;;;;;;;;;;5.40;99.90;;;;;;5057443;28;19994;-71
2023/01/20 12:50:19;;;;;;;;;;;5.60;99.90;;;;;;5066532;28;20392;-72
2023/01/20 12:52:53;;;;;;;;;;;5.80;99.90;;;;;;5053280;28;19925;-72
2023/01/20 12:55:25;;;;;;;;;;;5.90;99.90;;;;;;5054055;28;20354;-73
2023/01/20 12:57:58;;;;;;;;;;;5.90;99.90;;;;;;5055878;28;19931;-73
2023/01/20 13:00:38;;;;;;;;;;;5.80;99.90;;;;;;5068768;28;19929;-73
2023/01/20 13:03:23;;;;;;;;;;;5.60;99.90;;;;;;5064610;28;20013;-72
2023/01/20 13:06:01;;;;;;;;;;;5.50;99.90;;;;;;5023288;28;20354;-73
2023/01/20 13:08:35;;;;;;;;;;;5.50;99.90;;;;;;5051463;28;19935;-73
2023/01/20 13:11:08;;;;;;;;;;;5.50;99.90;;;;;;5068831;28;19928;-72
2023/01/20 13:13:39;;;;;;;;;;;5.50;99.90;;;;;;5065551;28;19972;-72
2023/01/20 13:16:12;;;;;;;;;;;5.50;99.90;;;;;;5052344;28;19932;-72
2023/01/20 13:18:44;;;;;;;;;;;5.50;99.90;;;;;;5051546;28;19967;-72
2023/01/20 13:21:15;;;;;;;;;;;5.60;99.90;;;;;;5066597;28;19925;-73
2023/01/20 13:23:41;;;;;;;;;;;5.60;99.90;;;;;;5050954;28;19929;-72
2023/01/20 13:26:08;;;;;;;;;;;5.70;99.90;;;;;;5069172;28;20014;-72
2023/01/20 13:28:35;;;;;;;;;;;5.70;99.90;;;;;;5066691;28;20424;-79
2023/01/20 13:31:22;;;;;;;;;;;5.70;99.90;;;;;;5067778;28;19931;-78
2023/01/20 13:33:50;;;;;;;;;;;5.80;99.90;;;;;;5073816;28;19924;-77
2023/01/20 13:36:18;;;;;;;;;;;5.90;99.90;;;;;;5074087;28;19924;-72
2023/01/20 13:38:45;;;;;;;;;;;5.90;99.90;;;;;;5070322;28;19924;-72
2023/01/20 13:41:11;;;;;;;;;;;5.90;99.90;;;;;;5063971;28;20410;-73
2023/01/20 13:43:56;;;;;;;;;;;6.00;99.90;;;;;;5074757;28;20451;-72
2023/01/20 13:46:41;;;;;;;;;;;6.00;99.90;;;;;;5065021;28;20418;-72
2023/01/20 13:49:13;;;;;;;;;;;6.00;99.90;;;;;;5059062;28;20323;-73
2023/01/20 13:51:44;;;;;;;;;;;6.10;99.90;;;;;;5065450;28;20007;-73
2023/01/20 13:54:32;;;;;;;;;;;5.90;99.90;;;;;;5056527;28;19928;-73
2023/01/20 13:57:26;;;;;;;;;;;5.80;99.90;;;;;;5074187;28;20391;-69
2023/01/20 13:59:53;;;;;;;;;;;5.80;99.90;;;;;;5056757;28;20070;-70
2023/01/20 14:02:20;;;;;;;;;;;5.70;99.90;;;;;;5074152;28;20023;-70
2023/01/20 14:04:48;;;;;;;;;;;5.60;99.90;;;;;;5071986;28;20049;-69
2023/01/20 14:07:22;;;;;;;;;;;5.50;99.90;;;;;;5070812;28;19943;-71
2023/01/20 14:09:52;;;;;;;;;;;5.40;99.90;;;;;;5060380;28;19925;-69
2023/01/20 14:12:19;;;;;;;;;;;5.40;99.90;;;;;;5060443;28;19932;-70
2023/01/20 14:14:48;;;;;;;;;;;5.30;99.90;;;;;;5066616;28;19964;-70
2023/01/20 14:17:17;;;;;;;;;;;5.30;99.90;;;;;;5053438;28;19925;-70
2023/01/20 14:19:46;;;;;;;;;;;5.40;99.90;;;;;;5060409;28;19975;-70
2023/01/20 14:22:19;;;;;;;;;;;5.40;99.90;;;;;;5073927;28;19935;-72
2023/01/20 14:24:46;;;;;;;;;;;5.30;99.90;;;;;;5070870;28;19924;-73
2023/01/20 14:27:17;;;;;;;;;;;5.30;99.90;;;;;;5067892;28;20098;-73
2023/01/20 14:29:43;;;;;;;;;;;5.30;99.90;;;;;;5055875;28;20019;-72
2023/01/20 14:32:17;;;;;;;;;;;5.30;99.90;;;;;;5068281;28;20284;-72
2023/01/20 14:34:44;;;;;;;;;;;5.30;99.90;;;;;;5071966;28;19935;-73
2023/01/20 14:37:25;;;;;;;;;;;5.30;99.90;;;;;;5055807;28;20011;-73
2023/01/20 14:39:53;;;;;;;;;;;5.40;99.90;;;;;;5060713;28;19982;-73
2023/01/20 14:42:21;;;;;;;;;;;5.40;99.90;;;;;;5073701;28;19925;-73
2023/01/20 14:44:48;;;;;;;;;;;5.50;99.90;;;;;;5069534;28;19935;-72
2023/01/20 14:47:15;;;;;;;;;;;5.40;99.90;;;;;;5069945;28;20030;-72
2023/01/20 14:49:43;;;;;;;;;;;5.30;99.90;;;;;;5069054;28;19943;-74
2023/01/20 14:52:13;;;;;;;;;;;5.30;99.90;;;;;;5071097;28;19956;-74
2023/01/20 14:54:44;;;;;;;;;;;5.20;99.90;;;;;;5054220;28;19925;-73